createdAt,value
2018-03-21T00:01:22.997Z,99146.16
2018-03-21T00:03:51.880Z,99151.06
2018-03-21T00:06:20.048Z,99154.92
2018-03-21T00:08:48.173Z,99158.02
2018-03-21T00:11:16.307Z,99159.54
2018-03-21T00:13:44.485Z,99159.91
2018-03-21T00:16:12.600Z,99159.70
2018-03-21T00:18:40.760Z,99162.28
2018-03-21T00:21:09.812Z,99151.37
2018-03-21T00:23:37.944Z,99158.91
2018-03-21T00:26:06.073Z,99165.41
2018-03-21T00:28:34.220Z,99162.67
2018-03-21T00:31:02.355Z,99170.03
2018-03-21T00:33:30.501Z,99165.77
2018-03-21T00:35:58.628Z,99172.54
2018-03-21T00:38:26.788Z,99170.57
2018-03-21T00:40:55.016Z,99171.60
2018-03-21T00:43:23.132Z,99174.62
2018-03-21T00:45:51.297Z,99170.01
2018-03-21T00:48:19.428Z,99171.85
2018-03-21T00:50:47.582Z,99170.95
2018-03-21T00:53:15.724Z,99181.53
2018-03-21T00:55:43.880Z,99179.33
2018-03-21T00:58:12.086Z,99171.91
2018-03-21T01:00:40.199Z,99174.59
2018-03-21T01:03:08.530Z,99174.82
2018-03-21T01:05:36.651Z,99173.41
2018-03-21T01:08:04.797Z,99178.37
2018-03-21T01:10:32.958Z,99177.13
2018-03-21T01:13:01.188Z,99180.05
2018-03-21T01:15:29.324Z,99177.37
2018-03-21T01:17:57.477Z,99179.33
2018-03-21T01:20:25.631Z,99181.12
2018-03-21T01:22:53.787Z,99181.28
2018-03-21T01:25:21.935Z,99172.94
2018-03-21T01:27:50.067Z,99174.47
2018-03-21T01:30:18.221Z,99170.49
2018-03-21T01:32:46.354Z,99177.68
2018-03-21T01:35:14.506Z,99181.28
2018-03-21T01:37:42.636Z,99177.91
2018-03-21T01:40:10.820Z,99184.48
2018-03-21T01:42:38.956Z,99181.64
2018-03-21T01:45:07.120Z,99176.60
2018-03-21T01:47:35.275Z,99169.30
2018-03-21T01:50:03.406Z,99170.13
2018-03-21T01:52:31.545Z,99167.28
2018-03-21T01:54:59.666Z,99167.95
2018-03-21T01:57:27.870Z,99165.86
2018-03-21T01:59:56.170Z,99164.80
2018-03-21T02:02:24.297Z,99167.87
2018-03-21T02:04:52.482Z,99170.01
2018-03-21T02:07:20.667Z,99164.59
2018-03-21T02:09:48.794Z,99163.63
2018-03-21T02:12:17.037Z,99159.52
2018-03-21T02:14:45.168Z,99152.51
2018-03-21T02:17:13.334Z,99156.29
2018-03-21T02:19:41.513Z,99160.39
2018-03-21T02:22:09.719Z,99156.64
2018-03-21T02:24:37.881Z,99161.63
2018-03-21T02:27:06.111Z,99156.81
2018-03-21T02:29:34.233Z,99158.95
2018-03-21T02:32:02.360Z,99160.26
2018-03-21T02:34:30.535Z,99164.22
2018-03-21T02:36:58.798Z,99155.89
2018-03-21T02:39:26.977Z,99155.03
2018-03-21T02:41:55.267Z,99158.06
2018-03-21T02:44:23.420Z,99153.17
2018-03-21T02:46:53.187Z,99155.82
2018-03-21T02:49:21.335Z,99161.98
2018-03-21T02:51:49.487Z,99159.61
2018-03-21T02:54:17.636Z,99161.98
2018-03-21T02:56:45.764Z,99157.26
2018-03-21T02:59:14.039Z,99167.34
2018-03-21T03:01:42.183Z,99161.28
2018-03-21T03:04:10.331Z,99160.89
2018-03-21T03:06:38.451Z,99158.55
2018-03-21T03:09:06.711Z,99153.31
2018-03-21T03:11:34.848Z,99160.53
2018-03-21T03:14:03.047Z,99160.22
2018-03-21T03:16:31.179Z,99152.77
2018-03-21T03:18:59.332Z,99158.52
2018-03-21T03:21:27.473Z,99161.54
2018-03-21T03:23:55.610Z,99162.05
2018-03-21T03:26:23.738Z,99158.70
2018-03-21T03:28:51.899Z,99162.04
2018-03-21T03:31:20.027Z,99164.34
2018-03-21T03:33:48.197Z,99163.53
2018-03-21T03:36:16.339Z,99173.20
2018-03-21T03:38:44.521Z,99167.38
2018-03-21T03:41:12.703Z,99174.02
2018-03-21T03:43:40.843Z,99175.91
2018-03-21T03:46:09.153Z,99178.45
2018-03-21T03:48:37.294Z,99181.80
2018-03-21T03:51:05.487Z,99186.23
2018-03-21T03:53:33.616Z,99187.61
2018-03-21T03:56:01.773Z,99177.41
2018-03-21T03:58:29.915Z,99182.23
2018-03-21T04:00:58.068Z,99183.20
2018-03-21T04:03:26.237Z,99190.74
2018-03-21T04:05:54.399Z,99193.04
2018-03-21T04:08:22.559Z,99197.31
2018-03-21T04:10:50.707Z,99202.55
2018-03-21T04:13:18.861Z,99201.23
2018-03-21T04:15:46.995Z,99205.73
2018-03-21T04:18:15.162Z,99206.31
2018-03-21T04:20:43.284Z,99211.86
2018-03-21T04:23:11.460Z,99205.11
2018-03-21T04:25:39.590Z,99211.09
2018-03-21T04:28:07.737Z,99206.16
2018-03-21T04:30:35.893Z,99207.23
2018-03-21T04:33:04.047Z,99214.34
2018-03-21T04:35:32.183Z,99223.45
2018-03-21T04:38:00.304Z,99225.38
2018-03-21T04:40:28.467Z,99222.77
2018-03-21T04:42:56.759Z,99226.21
2018-03-21T04:45:24.903Z,99227.02
2018-03-21T04:47:53.052Z,99231.84
2018-03-21T04:50:21.201Z,99240.77
2018-03-21T04:53:07.768Z,99244.48
2018-03-21T04:56:17.048Z,99238.66
2018-03-21T04:59:23.160Z,99241.27
2018-03-21T05:02:29.025Z,99244.64
2018-03-21T05:05:35.108Z,99245.14
2018-03-21T05:08:41.263Z,99248.17
2018-03-21T05:11:47.685Z,99202.34
2018-03-21T05:14:53.771Z,99258.84
2018-03-21T05:18:00.309Z,99259.82
2018-03-21T05:21:07.393Z,99264.55
2018-03-21T05:24:13.372Z,99273.88
2018-03-21T05:27:19.629Z,99274.73
2018-03-21T05:30:25.759Z,99272.78
2018-03-21T05:33:31.656Z,99271.78
2018-03-21T05:36:37.776Z,99275.98
2018-03-21T05:39:43.900Z,99279.48
2018-03-21T05:42:49.888Z,99281.88
2018-03-21T05:45:56.134Z,99288.94
2018-03-21T05:49:01.980Z,99300.67
2018-03-21T05:51:37.249Z,99301.82
2018-03-21T05:54:07.880Z,99314.36
2018-03-21T05:56:36.006Z,99313.78
2018-03-21T05:59:04.152Z,99323.80
2018-03-21T06:01:32.402Z,99325.75
2018-03-21T06:04:00.533Z,99321.23
2018-03-21T06:06:28.689Z,99329.70
2018-03-21T06:08:56.908Z,99336.25
2018-03-21T06:11:25.038Z,99339.53
2018-03-21T06:13:53.217Z,99347.23
2018-03-21T06:16:21.334Z,99351.56
2018-03-21T06:18:49.535Z,99352.14
2018-03-21T06:21:17.688Z,99364.77
2018-03-21T06:23:45.822Z,99362.15
2018-03-21T06:26:14.134Z,99367.73
2018-03-21T06:28:42.281Z,99371.83
2018-03-21T06:31:10.407Z,99374.98
2018-03-21T06:33:38.551Z,99379.27
2018-03-21T06:36:06.675Z,99387.45
2018-03-21T06:38:34.829Z,99389.98
2018-03-21T06:41:02.939Z,99391.86
2018-03-21T06:43:31.077Z,99395.05
2018-03-21T06:45:59.209Z,99403.09
2018-03-21T06:48:27.365Z,99395.22
2018-03-21T06:50:55.493Z,99398.64
2018-03-21T06:53:23.623Z,99401.73
2018-03-21T06:55:51.756Z,99404.70
2018-03-21T06:58:19.892Z,99412.92
2018-03-21T07:00:48.017Z,99409.31
2018-03-21T07:03:16.164Z,99412.89
2018-03-21T07:05:44.304Z,99416.02
2018-03-21T07:08:12.423Z,99419.36
2018-03-21T07:10:40.915Z,99430.26
2018-03-21T07:13:09.064Z,99431.39
2018-03-21T07:15:49.167Z,99428.98
2018-03-21T07:18:17.311Z,99437.52
2018-03-21T07:20:45.540Z,99436.54
2018-03-21T07:23:13.674Z,99442.26
2018-03-21T07:25:41.794Z,99443.50
2018-03-21T07:28:09.919Z,99446.88
2018-03-21T07:30:38.052Z,99448.86
2018-03-21T07:33:06.256Z,99449.17
2018-03-21T07:35:34.473Z,99447.70
2018-03-21T07:38:02.596Z,99449.96
2018-03-21T07:40:30.723Z,99457.48
2018-03-21T07:42:58.852Z,99455.03
2018-03-21T07:45:26.976Z,99455.22
2018-03-21T07:47:55.116Z,99457.42
2018-03-21T07:50:24.131Z,99449.30
2018-03-21T07:52:52.267Z,99449.91
2018-03-21T07:55:20.423Z,99446.67
2018-03-21T07:57:48.539Z,99449.41
2018-03-21T08:00:16.667Z,99451.30
2018-03-21T08:02:44.803Z,99446.16
2018-03-21T08:05:12.932Z,99455.36
2018-03-21T08:07:41.068Z,99455.45
2018-03-21T08:10:09.204Z,99460.63
2018-03-21T08:12:37.342Z,99457.69
2018-03-21T08:15:05.525Z,99462.63
2018-03-21T08:17:33.683Z,99461.80
2018-03-21T08:20:02.490Z,99464.20
2018-03-21T08:22:30.617Z,99468.71
2018-03-21T08:24:58.812Z,99469.31
2018-03-21T08:27:26.883Z,99474.59
2018-03-21T08:29:55.118Z,99470.42
2018-03-21T08:32:23.265Z,99479.09
2018-03-21T08:34:51.415Z,99472.70
2018-03-21T08:37:19.532Z,99475.55
2018-03-21T08:39:47.703Z,99474.80
2018-03-21T08:42:15.841Z,99475.79
2018-03-21T08:44:43.963Z,99468.43
2018-03-21T08:47:12.121Z,99471.16
2018-03-21T08:49:40.267Z,99466.15
2018-03-21T08:52:08.380Z,99470.72
2018-03-21T08:54:36.512Z,99473.90
2018-03-21T08:57:04.642Z,99480.18
2018-03-21T08:59:32.766Z,99485.42
2018-03-21T09:02:01.763Z,99483.61
2018-03-21T09:04:29.889Z,99476.90
2018-03-21T09:06:58.013Z,99478.66
2018-03-21T09:09:26.137Z,99478.73
2018-03-21T09:11:54.256Z,99479.64
2018-03-21T09:14:22.386Z,99489.77
2018-03-21T09:16:50.516Z,99482.81
2018-03-21T09:19:18.650Z,99482.58
2018-03-21T09:21:46.764Z,99480.53
2018-03-21T09:24:14.898Z,99482.91
2018-03-21T09:26:43.012Z,99485.42
2018-03-21T09:29:11.153Z,99494.83
2018-03-21T09:31:39.300Z,99496.14
2018-03-21T09:34:07.413Z,99491.03
2018-03-21T09:36:35.523Z,99486.62
2018-03-21T09:39:03.714Z,99488.21
2018-03-21T09:41:31.784Z,99479.46
2018-03-21T09:43:59.905Z,99480.95
2018-03-21T09:46:28.028Z,99490.47
2018-03-21T09:48:56.159Z,99486.67
2018-03-21T09:51:24.308Z,99488.27
2018-03-21T09:53:52.428Z,99483.98
2018-03-21T09:56:20.545Z,99487.20
2018-03-21T09:58:48.681Z,99479.11
2018-03-21T10:01:16.802Z,99483.44
2018-03-21T10:03:44.922Z,99483.77
2018-03-21T10:06:13.080Z,99478.20
2018-03-21T10:08:41.175Z,99488.20
2018-03-21T10:11:10.242Z,99483.70
2018-03-21T10:13:38.362Z,99478.05
2018-03-21T10:16:06.506Z,99485.73
2018-03-21T10:18:34.620Z,99488.73
2018-03-21T10:21:02.741Z,99487.33
2018-03-21T10:23:30.873Z,99484.84
2018-03-21T10:25:59.011Z,99489.94
2018-03-21T10:28:27.149Z,99489.41
2018-03-21T10:30:55.285Z,99498.06
2018-03-21T10:33:23.451Z,99503.16
2018-03-21T10:35:51.576Z,99508.30
2018-03-21T10:38:19.716Z,99510.23
2018-03-21T10:40:47.841Z,99519.86
2018-03-21T10:43:15.980Z,99514.74
2018-03-21T10:45:44.100Z,99518.91
2018-03-21T10:48:12.215Z,99508.09
2018-03-21T10:50:40.343Z,99508.43
2018-03-21T10:53:08.482Z,99511.17
2018-03-21T10:55:36.613Z,99508.83
2018-03-21T10:58:04.725Z,99509.52
2018-03-21T11:00:32.873Z,99520.82
2018-03-21T11:03:02.788Z,99512.86
2018-03-21T11:05:30.909Z,99509.12
2018-03-21T11:07:59.044Z,99512.61
2018-03-21T11:10:27.168Z,99510.91
2018-03-21T11:12:55.281Z,99513.87
2018-03-21T11:15:23.412Z,99510.27
2018-03-21T11:17:51.547Z,99515.27
2018-03-21T11:20:19.680Z,99515.42
2018-03-21T11:22:47.808Z,99516.94
2018-03-21T11:25:15.948Z,99516.89
2018-03-21T11:27:44.071Z,99519.20
2018-03-21T11:30:12.220Z,99517.50
2018-03-21T11:32:40.336Z,99512.45
2018-03-21T11:35:08.479Z,99506.03
2018-03-21T11:37:36.607Z,99500.70
2018-03-21T11:40:04.732Z,99503.45
2018-03-21T11:42:32.851Z,99496.19
2018-03-21T11:45:01.010Z,99485.59
2018-03-21T11:47:29.129Z,99487.82
2018-03-21T11:49:57.242Z,99489.32
2018-03-21T11:52:25.387Z,99487.80
2018-03-21T11:54:53.516Z,99488.78
2018-03-21T11:57:21.652Z,99491.29
2018-03-21T11:59:49.780Z,99490.16
2018-03-21T12:02:17.914Z,99498.86
2018-03-21T12:04:46.039Z,99497.52
2018-03-21T12:07:14.155Z,99494.83
2018-03-21T12:09:42.282Z,99491.65
2018-03-21T12:12:10.406Z,99484.73
2018-03-21T12:14:38.550Z,99489.06
2018-03-21T12:17:06.733Z,99491.02
2018-03-21T12:19:34.855Z,99490.89
2018-03-21T12:22:03.008Z,99494.31
2018-03-21T12:24:31.148Z,99490.36
2018-03-21T12:26:59.276Z,99497.64
2018-03-21T12:29:27.410Z,99493.95
2018-03-21T12:31:56.162Z,99500.30
2018-03-21T12:34:24.281Z,99502.12
2018-03-21T12:36:52.411Z,99506.09
2018-03-21T12:39:20.534Z,99504.20
2018-03-21T12:41:48.657Z,99509.00
2018-03-21T12:44:16.782Z,99508.86
2018-03-21T12:46:44.934Z,99512.31
2018-03-21T12:49:13.073Z,99509.90
2018-03-21T12:51:41.205Z,99506.42
2018-03-21T12:54:09.324Z,99501.70
2018-03-21T12:56:37.456Z,99498.98
2018-03-21T12:59:05.599Z,99498.43
2018-03-21T13:01:33.799Z,99500.84
2018-03-21T13:04:01.927Z,99503.91
2018-03-21T13:06:30.065Z,99511.73
2018-03-21T13:08:58.192Z,99495.54
2018-03-21T13:11:26.350Z,99504.36
2018-03-21T13:13:54.492Z,99497.62
2018-03-21T13:16:22.626Z,99495.48
2018-03-21T13:18:50.792Z,99481.81
2018-03-21T13:21:19.582Z,99474.10
2018-03-21T13:23:47.715Z,99480.98
2018-03-21T13:26:15.836Z,99483.48
2018-03-21T13:28:44.503Z,99488.54
2018-03-21T13:31:12.649Z,99480.92
2018-03-21T13:33:40.790Z,99482.86
2018-03-21T13:36:08.950Z,99482.30
2018-03-21T13:38:37.089Z,99494.19
2018-03-21T13:41:05.240Z,99494.56
2018-03-21T13:43:33.380Z,99495.30
2018-03-21T13:46:01.590Z,99493.64
2018-03-21T13:48:29.728Z,99489.52
2018-03-21T13:50:57.873Z,99488.25
2018-03-21T13:53:26.001Z,99490.55
2018-03-21T13:55:54.149Z,99494.05
2018-03-21T13:58:22.323Z,99486.23
2018-03-21T14:00:50.448Z,99488.49
2018-03-21T14:03:18.593Z,99481.05
2018-03-21T14:05:46.731Z,99484.98
2018-03-21T14:08:14.852Z,99478.03
2018-03-21T14:10:42.972Z,99476.59
2018-03-21T14:13:11.118Z,99476.45
2018-03-21T14:15:39.241Z,99475.12
2018-03-21T14:18:07.373Z,99470.53
2018-03-21T14:20:35.629Z,99476.50
2018-03-21T14:23:03.755Z,99478.05
2018-03-21T14:25:31.888Z,99469.67
2018-03-21T14:28:00.024Z,99475.03
2018-03-21T14:30:28.164Z,99476.69
2018-03-21T14:32:56.294Z,99475.28
2018-03-21T14:35:24.464Z,99477.92
2018-03-21T14:37:52.571Z,99477.27
2018-03-21T14:40:20.717Z,99468.75
2018-03-21T14:42:48.930Z,99468.91
2018-03-21T14:45:17.057Z,99467.37
2018-03-21T14:47:45.174Z,99464.27
2018-03-21T14:50:13.294Z,99463.59
2018-03-21T14:52:41.425Z,99465.46
2018-03-21T14:55:10.292Z,99474.58
2018-03-21T14:57:38.459Z,99467.75
2018-03-21T15:00:06.553Z,99464.70
2018-03-21T15:02:34.664Z,99469.58
2018-03-21T15:05:02.797Z,99460.14
2018-03-21T15:07:30.935Z,99460.76
2018-03-21T15:09:59.045Z,99459.72
2018-03-21T15:12:27.177Z,99461.09
2018-03-21T15:14:55.315Z,99462.46
2018-03-21T15:17:23.442Z,99459.75
2018-03-21T15:19:51.562Z,99458.77
2018-03-21T15:22:19.688Z,99461.38
2018-03-21T15:24:47.810Z,99457.03
2018-03-21T15:27:16.021Z,99458.23
2018-03-21T15:29:44.164Z,99465.59
2018-03-21T15:32:12.293Z,99465.59
2018-03-21T15:34:40.430Z,99468.72
2018-03-21T15:37:08.551Z,99470.45
2018-03-21T15:39:36.671Z,99468.96
2018-03-21T15:42:04.835Z,99473.78
2018-03-21T15:44:32.956Z,99489.19
2018-03-21T15:47:03.032Z,99491.73
2018-03-21T15:49:31.192Z,99495.52
2018-03-21T15:51:59.318Z,99492.55
2018-03-21T15:54:27.444Z,99497.94
2018-03-21T15:56:55.592Z,99501.06
2018-03-21T15:59:23.721Z,99498.64
2018-03-21T16:01:51.856Z,99491.41
2018-03-21T16:04:20.003Z,99494.78
2018-03-21T16:06:48.123Z,99493.51
2018-03-21T16:09:16.255Z,99503.33
2018-03-21T16:11:44.411Z,99506.34
2018-03-21T16:14:12.557Z,99510.03
2018-03-21T16:16:40.673Z,99511.99
2018-03-21T16:19:08.972Z,99509.91
2018-03-21T16:21:37.108Z,99514.27
2018-03-21T16:24:05.234Z,99522.91
2018-03-21T16:26:33.379Z,99519.31
2018-03-21T16:29:01.513Z,99525.07
2018-03-21T16:31:29.655Z,99532.33
2018-03-21T16:33:57.786Z,99515.41
2018-03-21T16:36:25.916Z,99533.92
2018-03-21T16:38:54.045Z,99535.87
2018-03-21T16:41:22.218Z,99534.56
2018-03-21T16:43:50.354Z,99537.09
2018-03-21T16:46:18.496Z,99538.47
2018-03-21T16:48:46.603Z,99551.22
2018-03-21T16:51:14.736Z,99549.41
2018-03-21T16:53:42.879Z,99550.94
2018-03-21T16:56:11.007Z,99553.38
2018-03-21T16:58:39.139Z,99554.56
2018-03-21T17:01:07.268Z,99561.14
2018-03-21T17:03:35.462Z,99557.14
2018-03-21T17:06:03.544Z,99558.45
2018-03-21T17:08:31.675Z,99565.52
2018-03-21T17:10:59.802Z,99572.64
2018-03-21T17:13:27.946Z,99577.41
2018-03-21T17:15:56.077Z,99581.08
2018-03-21T17:18:24.212Z,99578.83
2018-03-21T17:20:53.889Z,99584.70
2018-03-21T17:23:22.007Z,99585.08
2018-03-21T17:25:50.131Z,99588.31
2018-03-21T17:28:18.273Z,99587.00
2018-03-21T17:30:46.397Z,99602.60
2018-03-21T17:33:14.515Z,99600.72
2018-03-21T17:35:42.638Z,99608.97
2018-03-21T17:38:10.794Z,99614.19
2018-03-21T17:40:38.931Z,99607.78
2018-03-21T17:43:07.139Z,99608.36
2018-03-21T17:45:35.258Z,99612.57
2018-03-21T17:48:03.390Z,99618.44
2018-03-21T17:50:31.513Z,99624.08
2018-03-21T17:52:59.664Z,99625.91
2018-03-21T17:55:27.793Z,99624.84
2018-03-21T17:57:55.920Z,99625.98
2018-03-21T18:00:24.172Z,99639.85
2018-03-21T18:02:52.314Z,99637.95
2018-03-21T18:05:20.508Z,99649.04
2018-03-21T18:07:48.640Z,99647.63
2018-03-21T18:10:16.785Z,99653.80
2018-03-21T18:12:44.973Z,99658.30
2018-03-21T18:15:13.105Z,99659.42
2018-03-21T18:17:41.227Z,99661.03
2018-03-21T18:20:09.347Z,99655.36
2018-03-21T18:22:37.488Z,99655.34
2018-03-21T18:25:05.726Z,99662.31
2018-03-21T18:27:33.896Z,99667.33
2018-03-21T18:30:02.029Z,99672.97
2018-03-21T18:32:30.160Z,99664.70
2018-03-21T18:34:58.290Z,99666.69
2018-03-21T18:37:26.421Z,99668.94
2018-03-21T18:39:54.567Z,99667.79
2018-03-21T18:42:22.722Z,99675.25
2018-03-21T18:44:50.856Z,99676.58
2018-03-21T18:47:19.027Z,99682.77
2018-03-21T18:49:47.153Z,99679.05
2018-03-21T18:52:15.302Z,99681.64
2018-03-21T18:54:43.481Z,99680.13
2018-03-21T18:57:11.596Z,99680.20
2018-03-21T18:59:39.746Z,99679.68
2018-03-21T19:02:07.953Z,99680.41
2018-03-21T19:04:36.085Z,99687.93
2018-03-21T19:07:04.212Z,99675.53
2018-03-21T19:09:32.413Z,99682.89
2018-03-21T19:12:00.618Z,99679.43
2018-03-21T19:14:28.786Z,99682.64
2018-03-21T19:16:56.948Z,99683.53
2018-03-21T19:19:25.092Z,99683.09
2018-03-21T19:21:53.449Z,99690.84
2018-03-21T19:24:21.619Z,99686.56
2018-03-21T19:26:49.763Z,99693.36
2018-03-21T19:29:17.944Z,99697.59
2018-03-21T19:31:46.133Z,99697.24
2018-03-21T19:34:14.280Z,99702.86
2018-03-21T19:36:42.424Z,99710.38
2018-03-21T19:39:10.640Z,99671.64
2018-03-21T19:41:38.772Z,99710.38
2018-03-21T19:44:06.936Z,99705.54
2018-03-21T19:46:35.185Z,99707.62
2018-03-21T19:49:03.343Z,99698.97
2018-03-21T19:51:31.471Z,99704.94
2018-03-21T19:53:59.762Z,99706.17
2018-03-21T19:56:27.851Z,99703.76
2018-03-21T19:58:55.981Z,99702.61
2018-03-21T20:01:24.269Z,99709.00
2018-03-21T20:03:52.384Z,99706.74
2018-03-21T20:06:20.628Z,99706.91
2018-03-21T20:08:48.801Z,99707.14
2018-03-21T20:11:16.975Z,99699.40
2018-03-21T20:13:45.242Z,99702.22
2018-03-21T20:16:13.391Z,99702.86
2018-03-21T20:18:41.519Z,99697.38
2018-03-21T20:21:09.695Z,99699.95
2018-03-21T20:23:38.070Z,99699.78
2018-03-21T20:26:06.191Z,99698.93
2018-03-21T20:28:34.824Z,99696.61
2018-03-21T20:31:03.101Z,99698.56
2018-03-21T20:33:31.177Z,99693.92
2018-03-21T20:35:59.355Z,99700.23
2018-03-21T20:38:28.393Z,99701.84
2018-03-21T20:40:56.559Z,99698.98
2018-03-21T20:43:24.819Z,99702.49
2018-03-21T20:45:52.973Z,99699.05
2018-03-21T20:48:22.339Z,99704.52
2018-03-21T20:50:50.505Z,99702.95
2018-03-21T20:53:21.807Z,99705.58
2018-03-21T20:55:49.947Z,99700.81
2018-03-21T20:58:18.171Z,99702.03
2018-03-21T21:00:46.359Z,99710.12
2018-03-21T21:03:15.142Z,99706.13
2018-03-21T21:05:43.268Z,99704.14
2018-03-21T21:08:11.687Z,99698.66
2018-03-21T21:10:39.842Z,99698.85
2018-03-21T21:13:08.075Z,99698.19
2018-03-21T21:15:36.278Z,99701.64
2018-03-21T21:18:04.459Z,99701.88
2018-03-21T21:20:32.598Z,99694.36
2018-03-21T21:23:00.775Z,99698.30
2018-03-21T21:25:28.938Z,99696.73
2018-03-21T21:27:57.119Z,99700.56
2018-03-21T21:30:25.289Z,99696.80
2018-03-21T21:32:57.492Z,99696.13
2018-03-21T21:35:25.694Z,99689.66
2018-03-21T21:37:53.902Z,99689.66
2018-03-21T21:40:22.035Z,99693.39
2018-03-21T21:42:50.159Z,99695.31
2018-03-21T21:45:18.332Z,99688.93
2018-03-21T21:47:46.479Z,99687.18
2018-03-21T21:50:15.258Z,99689.81
2018-03-21T21:52:43.616Z,99691.83
2018-03-21T21:55:11.744Z,99686.63
2018-03-21T21:57:39.907Z,99692.28
2018-03-21T22:00:08.088Z,99692.16
2018-03-21T22:02:36.273Z,99690.43
2018-03-21T22:05:04.409Z,99688.00
2018-03-21T22:07:32.581Z,99684.55
2018-03-21T22:10:00.724Z,99684.72
2018-03-21T22:12:28.860Z,99684.59
2018-03-21T22:14:57.004Z,99686.19
2018-03-21T22:17:25.143Z,99687.60
2018-03-21T22:19:53.472Z,99686.58
2018-03-21T22:22:21.753Z,99689.17
2018-03-21T22:24:49.868Z,99682.34
2018-03-21T22:27:18.011Z,99680.77
2018-03-21T22:29:46.177Z,99681.19
2018-03-21T22:32:14.299Z,99678.58
2018-03-21T22:34:42.428Z,99682.09
2018-03-21T22:37:10.620Z,99673.27
2018-03-21T22:39:38.754Z,99672.64
2018-03-21T22:42:06.876Z,99675.31
2018-03-21T22:44:35.126Z,99664.17
2018-03-21T22:47:03.305Z,99666.73
2018-03-21T22:49:31.377Z,99660.95
2018-03-21T22:51:59.675Z,99666.48
2018-03-21T22:54:27.872Z,99659.11
2018-03-21T22:56:56.577Z,99663.03
2018-03-21T22:59:24.708Z,99670.56
2018-03-21T23:01:52.839Z,99662.42
2018-03-21T23:04:21.338Z,99658.02
2018-03-21T23:06:49.488Z,99662.78
2018-03-21T23:09:17.617Z,99658.31
2018-03-21T23:11:45.752Z,99655.25
2018-03-21T23:14:13.910Z,99650.37
2018-03-21T23:16:44.287Z,99651.23
2018-03-21T23:19:12.769Z,99645.67
2018-03-21T23:21:40.925Z,99634.61
2018-03-21T23:24:09.068Z,99644.38
2018-03-21T23:26:37.196Z,99646.00
2018-03-21T23:29:05.336Z,99642.06
2018-03-21T23:31:33.469Z,99638.23
2018-03-21T23:34:01.630Z,99641.42
2018-03-21T23:36:29.805Z,99639.31
2018-03-21T23:38:57.933Z,99639.59
2018-03-21T23:41:27.318Z,99633.06
2018-03-21T23:43:55.448Z,99627.09
2018-03-21T23:46:23.598Z,99627.98
2018-03-21T23:48:51.748Z,99617.95
2018-03-21T23:51:19.890Z,99616.63
2018-03-21T23:53:48.174Z,99614.75
2018-03-21T23:56:16.353Z,99611.73
2018-03-21T23:58:44.575Z,99611.88
